ADDS METAR Data INFO
IDs: Format: Raw Decoded Include TAF

Data at: 1610 UTC 14 Aug 2018

KELZ 141556Z AUTO 29011KT 5SM -RA BR FEW008 SCT060 OVC095 19/18 A2998 RMK AO2 SLP144 P0006 T01940183
KELZ 141549Z AUTO 29011KT 4SM -RA BR SCT008 BKN060 OVC090 19/18 A2998 RMK AO2 P0006 T01890183
KELZ 141534Z AUTO 31009KT 2 1/2SM RA BR BKN008 BKN055 OVC090 19/18 A2999 RMK AO2 P0004 T01890183
KELZ 141512Z AUTO 33006KT 4SM -RA BR OVC009 19/18 A2999 RMK AO2 CIG 006V013 P0001 T01890183
KELZ 141456Z AUTO 32007KT 4SM -RA BR SCT007 BKN013 OVC100 19/18 A2999 RMK AO2 SLP145 P0003 60050 T01890178 58002
KELZ 141415Z AUTO 30009KT 4SM -RA BR SCT009 SCT055 OVC100 18/18 A2998 RMK AO2 P0001 T01830178
KELZ 141404Z AUTO 30010KT 3SM -RA BR BKN009 BKN050 OVC100 18/18 A2998 RMK AO2 P0000 T01830178
KELZ 141356Z AUTO 30010KT 2 1/2SM RA BR FEW006 BKN013 OVC100 18/18 A2999 RMK AO2 SLP145 P0007 T01830178
KELZ 141335Z AUTO 31008KT 2SM -RA BR FEW008 OVC014 18/18 A2999 RMK AO2 P0004 T01830178
KELZ 141314Z AUTO 30009KT 2 1/2SM -RA BR BKN011 OVC016 18/18 A3000 RMK AO2 P0001 T01830178
KELZ 141307Z AUTO 30007KT 3SM -RA BR FEW008 OVC013 18/18 A3000 RMK AO2 P0000 T01830178
KELZ 141301Z AUTO 31006KT 3SM -RA BR SCT010 BKN015 OVC023 18/18 A3000 RMK AO2 P0000 T01830178
KELZ 141258Z AUTO 30007KT 2 1/2SM -RA BR BKN010 BKN015 OVC023 18/18 A2999 RMK AO2 P0000 T01830178
KELZ 141256Z AUTO 30006KT 1 3/4SM -RA BR SCT010 BKN015 OVC023 18/18 A2999 RMK AO2 SLP148 P0040 T01830178
KELZ 141249Z AUTO 32005KT 1 1/4SM +RA BR BKN013 BKN018 OVC023 18/18 A3000 RMK AO2 P0039 T01830178
KELZ 141233Z AUTO 32007KT 3/4SM +RA BR FEW004 SCT016 OVC026 18/18 A3000 RMK AO2 P0029 T01830178
KELZ 141225Z AUTO 31008KT 2SM -RA BR FEW004 BKN020 OVC050 18/18 A2999 RMK AO2 P0019 T01830178
KELZ 141219Z AUTO 31007KT 3/4SM RA BR FEW004 BKN035 OVC085 18/18 A2999 RMK AO2 P0018 T01830178
KELZ 141210Z AUTO 30009KT 1/2SM +RA FG SCT004 BKN024 OVC055 18/18 A2999 RMK AO2 LTG DSNT N P0014 T01830178
KELZ 141203Z AUTO 31010KT 1SM +RA BR FEW004 BKN026 OVC032 18/18 A2999 RMK AO2 LTG DSNT N P0006 T01830178
KELZ 141156Z AUTO 30007KT 2SM VCTS RA BR FEW004 BKN026 OVC033 18/18 A2999 RMK AO2 SLP147 P0007 60016 70019 T01830178 10189 20183 52003
KELZ 141151Z AUTO 31008KT 2 1/2SM VCTS RA BR SCT006 BKN015 OVC033 18/18 A2999 RMK AO2 LTG DSNT N P0006
KELZ 141147Z AUTO 31008KT 2 1/2SM VCTS RA BR FEW005 BKN008 OVC025 18/18 A2999 RMK AO2 LTG DSNT N CIG 006V012 P0005 T01830178
KELZ 141135Z AUTO 31008KT 2SM -RA BR SCT005 BKN010 OVC018 18/18 A2999 RMK AO2 LTG DSNT N CIG 008V014 P0004 T01830183
KELZ 141129Z AUTO 30005KT 1 3/4SM -RA BR BKN005 BKN010 OVC016 19/18 A3000 RMK AO2 LTG DSNT N AND NE P0003 T01890183
KELZ 141124Z AUTO 31006KT 2SM -RA BR SCT005 BKN010 OVC046 19/18 A3000 RMK AO2 LTG DSNT N AND NE P0003 T01890183
KELZ 141104Z AUTO 32004KT 1 1/2SM -RA BR BKN005 BKN025 OVC037 19/18 A2999 RMK AO2 P0001 T01890183
KELZ 141056Z AUTO 32004KT 2SM -RA BR BKN005 BKN025 OVC037 19/18 A2999 RMK AO2 SLP146 P0005 T01890183
KELZ 141043Z AUTO 30005KT 4SM -RA BR BKN006 BKN015 OVC023 19/18 A2999 RMK AO2 P0004 T01890183
KELZ 141033Z AUTO 30005KT 3SM -RA BR SCT006 BKN023 OVC060 18/18 A2999 RMK AO2 P0004 T01830183
KELZ 141022Z AUTO 29005KT 2 1/2SM -RA BR SCT004 BKN014 OVC060 18/18 A2999 RMK AO2 P0003 T01830183
KELZ 140956Z AUTO 30003KT 2SM RA BR OVC004 18/18 A2998 RMK AO2 SLP143 P0004 T01830183
KELZ 140938Z AUTO 29004KT 4SM -RA BR OVC004 18/18 A2998 RMK AO2 P0002 T01830183
KELZ 140916Z AUTO 31005KT 5SM -RA BR OVC005 18/18 A2998 RMK AO2 P0001 T01830178
KELZ 140856Z AUTO 31004KT 6SM -RA BR BKN004 BKN090 18/18 A2998 RMK AO2 RAB54 SLP144 P0000 60000 T01830178 55007
KELZ 140853Z AUTO 30004KT 6SM BR BKN004 OVC090 18/18 A2998 RMK AO2 LTG DSNT E CIG 003V008
KELZ 140836Z AUTO 30003KT 5SM BR OVC005 18/18 A2998 RMK AO2 T01830178
KELZ 140819Z AUTO 27003KT 6SM BR OVC004 18/18 A2998 RMK AO2 T01830183
KELZ 140756Z AUTO 31004KT 5SM BR OVC002 18/18 A2999 RMK AO2 RAB42E53 SLP147 P0000 T01830183
KELZ 140748Z AUTO 32005KT 3SM -RA BR OVC002 18/18 A2999 RMK AO2 RAB42 P0000 T01830183
KELZ 140741Z AUTO 32005KT 2 1/2SM BR OVC002 18/18 A2999 RMK AO2 T01830183
KELZ 140726Z AUTO 33005KT 1 3/4SM BR OVC002 18/18 A2999 RMK AO2 T01830183
KELZ 140656Z AUTO 33004KT 2SM BR OVC002 18/18 A3001 RMK AO2 SLP151 T01830183
KELZ 140634Z AUTO 33004KT 1SM BR VV002 18/18 A3001 RMK AO2 T01830183
KELZ 140622Z AUTO 33004KT 3/4SM BR VV002 18/18 A3001 RMK AO2 T01830183
KELZ 140609Z AUTO 34005KT 1 1/4SM BR OVC002 18/18 A3002 RMK AO2 T01830183
KELZ 140556Z AUTO 32005KT 1/2SM FG VV002 18/18 A3002 RMK AO2 SLP156 T01830183 10200 20178 56004
KELZ 140554Z AUTO 32006KT 1/2SM FG VV002 18/18 A3002 RMK AO2
KELZ 140538Z AUTO 31004KT 1 3/4SM BR OVC003 18/18 A3002 RMK AO2 T01830183
KELZ 140522Z AUTO 30005KT 7SM OVC003 18/18 A3002 RMK AO2 T01830178
KELZ 140512Z AUTO 32005KT 7SM OVC004 18/18 A3002 RMK AO2 T01830178
KELZ 140456Z AUTO 33004KT 10SM OVC005 18/18 A3003 RMK AO2 SLP159 T01830178 402170167
KELZ 140448Z AUTO 32004KT 10SM BKN005 OVC085 18/17 A3003 RMK AO2 T01830172
KELZ 140434Z AUTO 00000KT 10SM FEW006 OVC090 18/17 A3003 RMK AO2 T01780172
KELZ 140356Z AUTO 34005KT 10SM FEW042 OVC085 18/17 A3003 RMK AO2 SLP161 T01830172
KELZ 140256Z AUTO 33003KT 10SM OVC060 19/17 A3004 RMK AO2 SLP163 T01890172 58002
KELZ 140156Z AUTO 34003KT 10SM FEW030 OVC036 19/18 A3005 RMK AO2 SLP166 T01890178
KELZ 140103Z AUTO 30003KT 10SM FEW004 OVC036 19/18 A3005 RMK AO2 T01890183
KELZ 140056Z AUTO 29004KT 10SM BKN004 OVC036 19/18 A3005 RMK AO2 SLP166 T01890183
KELZ 140036Z AUTO 31004KT 8SM BKN003 OVC039 19/19 A3004 RMK AO2 T01890189
KELZ 140022Z AUTO 30006KT 9SM FEW005 OVC039 19/19 A3004 RMK AO2 T01940189
KELZ 132356Z AUTO 34005KT 10SM SCT041 20/19 A3005 RMK AO2 SLP165 60001 T02000189 10217 20194 56004
KELZ 132256Z AUTO 01004KT 10SM FEW039 21/19 A3005 RMK AO2 SLP166 T02060189
KELZ 132213Z AUTO 02004KT 10SM FEW007 SCT012 BKN110 22/19 A3005 RMK AO2 T02170194
KELZ 132156Z AUTO 01005KT 10SM BKN100 21/19 A3006 RMK AO2 SLP169 T02110194
KELZ 132056Z AUTO 01006KT 10SM SCT060 OVC120 21/19 A3006 RMK AO2 RAB07E39 SLP170 P0000 60001 T02060194 56014
KELZ 131956Z AUTO 01007KT 10SM BKN044 OVC070 20/19 A3007 RMK AO2 RAB24E42 SLP176 P0001 T02000189
KELZ 131936Z AUTO 35003KT 5SM -RA BR FEW005 BKN046 OVC050 20/19 A3008 RMK AO2 RAB24 P0001 T02000189
KELZ 131856Z AUTO 35004KT 9SM FEW003 BKN021 21/19 A3008 RMK AO2 SLP178 T02060194
KELZ 131849Z AUTO 01004KT 10SM SCT003 BKN019 21/19 A3009 RMK AO2 T02060194
KELZ 131838Z AUTO 02003KT 7SM BKN002 BKN020 21/19 A3009 RMK AO2 T02060194
KELZ 131831Z AUTO 00000KT 2 1/2SM BR BKN002 BKN020 OVC047 20/19 A3010 RMK AO2 T02000194
KELZ 131818Z AUTO 35003KT 3/4SM BR BKN002 BKN014 OVC046 20/19 A3009 RMK AO2 VIS M1/4V5 T02000194
KELZ 131815Z AUTO 01003KT 1 3/4SM BR SCT004 BKN016 OVC046 20/19 A3009 RMK AO2 T02000194
KELZ 131801Z AUTO 01005KT 3SM BR FEW008 BKN015 OVC040 20/19 A3010 RMK AO2 T02000189
KELZ 131756Z AUTO 01003KT 1/2SM FG SCT010 BKN018 OVC045 20/19 A3010 RMK AO2 RAE38B44E53 SLP185 P0001 60002 T02000194 10206 20183 56014
KELZ 131748Z AUTO 09003KT 3/4SM -RA BR FEW006 BKN019 OVC049 20/19 A3011 RMK AO2 RAE38B44 P0001 T02000194
KELZ 131745Z AUTO 11004KT 4SM -RA BR FEW006 BKN022 OVC049 20/19 A3011 RMK AO2 RAE38B44 P0001 T02000194
KELZ 131739Z AUTO 33004KT 10SM SCT014 BKN035 OVC055 21/19 A3010 RMK AO2 RAE38 P0001 T02060189
KELZ 131732Z AUTO 34005KT 9SM -RA SCT012 BKN021 OVC036 21/19 A3010 RMK AO2 P0001 T02060189
KELZ 131717Z AUTO 27003KT 6SM -RA BR FEW006 BKN014 OVC020 20/19 A3011 RMK AO2 P0001 T02000189
KELZ 131707Z AUTO 25004KT 4SM -RA BR SCT008 BKN020 OVC100 20/19 A3011 RMK AO2 P0001 T02000194
KELZ 131656Z AUTO 24004KT 6SM -RA BR SCT006 OVC100 20/19 A3011 RMK AO2 RAB05 SLP188 P0001 T02000194
KELZ 131556Z AUTO 01003KT 10SM OVC100 20/19 A3012 RMK AO2 RAE42 SLP191 P0000 T02000189
KELZ 131456Z AUTO 00000KT 8SM -RA FEW022 SCT040 OVC100 20/18 A3015 RMK AO2 RAB53 SLP199 P0000 60000 T02000183 51002
KELZ 131356Z AUTO 00000KT 9SM CLR 19/18 A3014 RMK AO2 SLP198 T01890183
KELZ 131345Z AUTO 32004KT 9SM FEW009 18/18 A3014 RMK AO2 T01830183
KELZ 131325Z AUTO 33003KT 3SM BR SCT003 OVC008 18/18 A3014 RMK AO2 T01830183
KELZ 131321Z AUTO 35003KT 1SM BR BKN003 OVC008 18/18 A3014 RMK AO2 T01830183
KELZ 131315Z AUTO 35003KT 1/4SM FG BKN003 OVC008 18/18 A3014 RMK AO2 T01830183
KELZ 131307Z AUTO 34004KT 3/4SM BR OVC003 18/18 A3014 RMK AO2 T01830183
KELZ 131305Z AUTO 34004KT 2 1/2SM BR OVC002 18/18 A3014 RMK AO2 T01830183
KELZ 131256Z AUTO 35003KT 1SM BR VV002 18/18 A3014 RMK AO2 SLP198 T01830183
KELZ 131156Z AUTO 00000KT M1/4SM FG VV002 18/18 A3014 RMK AO2 SLP196 T01830183 10183 20167 50003
KELZ 131056Z AUTO 34004KT M1/4SM FG VV002 18/18 A3014 RMK AO2 SLP196 T01830183
KELZ 130956Z AUTO 00000KT 1/4SM FG VV002 18/18 A3013 RMK AO2 SLP190 T01780178
KELZ 130856Z AUTO 00000KT 1/4SM FG VV002 17/17 A3013 RMK AO2 SLP191 T01720172 56004
KELZ 130838Z AUTO 34004KT 1/4SM FG VV003 17/17 A3013 RMK AO2 T01720172
KELZ 130825Z AUTO 03003KT 1/4SM FG BKN004 OVC090 17/17 A3014 RMK AO2 T01720172
KELZ 130817Z AUTO 00000KT 1/4SM FG BKN005 OVC090 17/17 A3014 RMK AO2 T01720172
KELZ 130808Z AUTO 00000KT 1/2SM FG BKN005 OVC090 17/17 A3013 RMK AO2 T01670167
KELZ 130756Z AUTO 30003KT 1/4SM FG VV005 17/17 A3013 RMK AO2 SLP192 T01670167
KELZ 130752Z AUTO 00000KT 1/4SM FG VV005 17/17 A3013 RMK AO2
KELZ 130714Z AUTO 01003KT 1/4SM FG VV002 17/17 A3014 RMK AO2 T01720172
KELZ 130703Z AUTO 36004KT 3/4SM BR VV002 17/17 A3014 RMK AO2 T01720172
KELZ 130656Z AUTO 00000KT 1 1/2SM BR FEW003 17/17 A3014 RMK AO2 SLP195 T01720172
KELZ 130651Z AUTO 00000KT 1 3/4SM BR FEW003 18/18 A3014 RMK AO2
KELZ 130606Z AUTO 00000KT 3SM BR FEW002 18/18 A3015 RMK AO2 T01780178
KELZ 130603Z AUTO 33003KT 1 1/4SM BR FEW002 18/18 A3015 RMK AO2 T01780178
KELZ 130556Z AUTO 00000KT 1/2SM FG VV002 18/18 A3015 RMK AO2 SLP197 T01780178 10222 20178 58005
KELZ 130554Z AUTO 00000KT 1/2SM FG VV003 18/18 A3015 RMK AO2
KELZ 130547Z AUTO 00000KT 1 1/2SM BR CLR 18/18 A3015 RMK AO2 VIS 1/2V5 T01780178
KELZ 130544Z AUTO 00000KT 3SM BR CLR 18/18 A3015 RMK AO2 T01830178
KELZ 130533Z AUTO 00000KT 1 1/2SM BR CLR 18/18 A3016 RMK AO2 VIS 3/4V4 T01830178
KELZ 130456Z AUTO 00000KT 6SM BR CLR 18/18 A3017 RMK AO2 SLP204 T01830178 402720117